Coastal Messenger — CFL9726 — position and weather

sailwx.info

Track history (hours):
 
Tides and Currents Weather Stations Pressure Air Temp Water Temp Dewpoint Dewpoint Depression Visibility Wind Speed Wind Dir Waves Ship Positions

Coastal Messenger

Last reported at 2017-May-01 01:59 UTC. Time now 2017-May-01 02:24 UTC.
Position N 48°57' W 125°33'.

Length 16 m.

Type: Pleasure craft. MMSI: 316016342.

Date/timePositionNaut miles runAvg speedWind from/ knotsBaromVisibWave heightAir tempDewpointWater temp
2017-May-01 01:59N 48°57' W 125°33'0 0.0
2017-May-01 01:29N 48°57' W 125°33'0 0.0
2017-May-01 00:56N 48°57' W 125°33'0 0.0
2017-May-01 00:29N 48°57' W 125°33'0 0.0
2017-Apr-30 23:59N 48°57' W 125°33'0 0.0
2017-Apr-30 23:29N 48°57' W 125°33'0 0.0
2017-Apr-30 22:59N 48°57' W 125°33'0 0.0
2017-Apr-30 22:29N 48°57' W 125°33'0 0.0
2017-Apr-30 21:59N 48°57' W 125°33'0 0.0
2017-Apr-30 21:29N 48°57' W 125°33'0 0.0
2017-Apr-30 20:59N 48°57' W 125°33'0 0.0
2017-Apr-30 20:29N 48°57' W 125°33'0 0.0
2017-Apr-30 19:59N 48°57' W 125°33'0 0.0
2017-Apr-30 19:29N 48°57' W 125°33'0 0.0
2017-Apr-30 18:56N 48°57' W 125°33'0 0.0
2017-Apr-30 18:26N 48°57' W 125°33'0 0.0
2017-Apr-30 17:59N 48°57' W 125°33'0 0.0
2017-Apr-30 17:29N 48°57' W 125°33'0 0.0
2017-Apr-30 16:59N 48°57' W 125°33'0 0.0
2017-Apr-30 16:29N 48°57' W 125°33'0 0.0
2017-Apr-30 15:59N 48°57' W 125°33'0 0.0
2017-Apr-30 15:23N 48°57' W 125°33'0 0.0
2017-Apr-30 14:59N 48°57' W 125°33'0 0.0
2017-Apr-30 14:29N 48°57' W 125°33'0 0.0
2017-Apr-30 13:23N 48°57' W 125°33'0 0.0
2017-Apr-30 12:59N 48°57' W 125°33'0 0.0
2017-Apr-30 12:29N 48°57' W 125°33'0 0.0
2017-Apr-30 11:59N 48°57' W 125°33'0 0.0
2017-Apr-30 11:29N 48°57' W 125°33'0 0.0
2017-Apr-30 10:59N 48°57' W 125°33'0 0.0
2017-Apr-30 10:29N 48°57' W 125°33'0 0.0
2017-Apr-30 09:59N 48°57' W 125°33'0 0.0
2017-Apr-30 09:29N 48°57' W 125°33'0 0.0
2017-Apr-30 08:59N 48°57' W 125°33'0 0.0
2017-Apr-30 08:29N 48°57' W 125°33'0 0.0
2017-Apr-30 07:59N 48°57' W 125°33'0 0.0
2017-Apr-30 07:29N 48°57' W 125°33'0 0.0
2017-Apr-30 06:59N 48°57' W 125°33'0 0.0
2017-Apr-30 06:29N 48°57' W 125°33'0 0.0
2017-Apr-30 05:59N 48°57' W 125°33'0 0.0
2017-Apr-30 05:29N 48°57' W 125°33'0 0.0
2017-Apr-30 04:59N 48°57' W 125°33'0 0.0
2017-Apr-30 04:29N 48°57' W 125°33'0 0.0
2017-Apr-30 03:59N 48°57' W 125°33'0 0.0
2017-Apr-30 03:29N 48°57' W 125°33'0 0.0
2017-Apr-30 02:59N 48°57' W 125°33'0 0.0
2017-Apr-30 02:29N 48°57' W 125°33'0 0.0
2017-Apr-30 01:59N 48°57' W 125°33'0 0.0
2017-Apr-30 01:29N 48°57' W 125°33'0 0.0
2017-Apr-30 00:56N 48°57' W 125°33'0 0.0
2017-Apr-30 00:29N 48°57' W 125°33'0 0.0
2017-Apr-29 23:59N 48°57' W 125°33'0 0.0
2017-Apr-29 23:29N 48°57' W 125°33'1 1.6
2017-Apr-29 22:58N 48°56' W 125°32'0 0.0
2017-Apr-29 22:28N 48°56' W 125°32'0 0.0
2017-Apr-29 21:58N 48°56' W 125°32'0 0.0
2017-Apr-29 21:28N 48°56' W 125°32'0 0.0
2017-Apr-29 20:58N 48°56' W 125°32'0 0.0
2017-Apr-29 20:28N 48°56' W 125°32'2 4.7
2017-Apr-29 20:00N 48°55' W 125°30'4 8.3
2017-Apr-29 19:30N 48°54' W 125°24'1 2.2
2017-Apr-29 19:00N 48°54' W 125°22'29 1.4
2017-Apr-28 22:12N 49°13' W 124°49'1 0.1
2017-Apr-28 01:16N 49°14' W 124°49'  
2017-Apr-24 18:11N 48°35' W 124°47'2 7.0
2017-Apr-24 17:53N 48°34' W 124°45'3 7.4
2017-Apr-24 17:30N 48°33' W 124°41'11 8.6
2017-Apr-24 16:14N 48°28' W 124°26'39 0.8
2017-Apr-22 15:01N 48°20' W 123°28'4 9.0
2017-Apr-22 14:37N 48°23' W 123°25'1 8.3
2017-Apr-22 14:30N 48°24' W 123°25'2 2.0
2017-Apr-22 13:29N 48°25' W 123°22'0 0.0
2017-Apr-22 12:59N 48°25' W 123°22'0 0.0
2017-Apr-22 12:29N 48°25' W 123°22'0 0.0
2017-Apr-22 11:59N 48°25' W 123°22'0 0.0
2017-Apr-22 11:29N 48°25' W 123°22'0 0.0
2017-Apr-22 10:59N 48°25' W 123°22'0 0.0
2017-Apr-22 10:29N 48°25' W 123°22'0 0.0
2017-Apr-22 09:59N 48°25' W 123°22'0 0.0
2017-Apr-22 09:29N 48°25' W 123°22'0 0.0
2017-Apr-22 08:59N 48°25' W 123°22'0 0.0
2017-Apr-22 08:29N 48°25' W 123°22'0 0.0
2017-Apr-22 07:59N 48°25' W 123°22'0 0.0
2017-Apr-22 07:29N 48°25' W 123°22'0 0.0
2017-Apr-22 06:59N 48°25' W 123°22'0 0.0
2017-Apr-22 06:29N 48°25' W 123°22'0 0.0
2017-Apr-22 05:59N 48°25' W 123°22'0 0.0
2017-Apr-22 05:29N 48°25' W 123°22'0 0.0
2017-Apr-22 04:59N 48°25' W 123°22'0 0.0
2017-Apr-22 04:29N 48°25' W 123°22'0 0.0
2017-Apr-22 03:59N 48°25' W 123°22'0 0.0
2017-Apr-22 03:26N 48°25' W 123°22'0 0.0
2017-Apr-22 02:59N 48°25' W 123°22'0 0.0
2017-Apr-22 02:29N 48°25' W 123°22'0 0.0
2017-Apr-22 01:59N 48°25' W 123°22'0 0.0
2017-Apr-22 01:29N 48°25' W 123°22'0 0.0
2017-Apr-22 00:59N 48°25' W 123°22'0 0.0
2017-Apr-22 00:29N 48°25' W 123°22'0 0.0
2017-Apr-21 23:59N 48°25' W 123°22'0 0.0
2017-Apr-21 23:29N 48°25' W 123°22'0 0.0
2017-Apr-21 22:59N 48°25' W 123°22'0 0.0
2017-Apr-21 22:29N 48°25' W 123°22'0 0.0
2017-Apr-21 21:59N 48°25' W 123°22'0 0.0
2017-Apr-21 21:29N 48°25' W 123°22'0 0.0
2017-Apr-21 20:59N 48°25' W 123°22'0 0.0
2017-Apr-21 20:26N 48°25' W 123°22'0 0.0
2017-Apr-21 19:59N 48°25' W 123°22'0 0.0
2017-Apr-21 19:29N 48°25' W 123°22'0 0.0
2017-Apr-21 18:59N 48°25' W 123°22'0 0.0
2017-Apr-21 18:29N 48°25' W 123°22'0 0.0
2017-Apr-21 17:59N 48°25' W 123°22'0 0.0
2017-Apr-21 17:29N 48°25' W 123°22'0 0.0
2017-Apr-21 16:59N 48°25' W 123°22'0 0.1
2017-Apr-21 16:29N 48°25' W 123°22'0 0.0
2017-Apr-21 15:56N 48°25' W 123°22'0 0.0
2017-Apr-21 15:29N 48°25' W 123°22'0 0.0
2017-Apr-21 14:59N 48°25' W 123°22'0 0.0
2017-Apr-21 14:29N 48°25' W 123°22'0 0.0
2017-Apr-21 13:29N 48°25' W 123°22'0 0.0
2017-Apr-21 12:59N 48°25' W 123°22'0 0.0
2017-Apr-21 12:29N 48°25' W 123°22'0 0.0
2017-Apr-21 11:59N 48°25' W 123°22'0 0.0
2017-Apr-21 11:29N 48°25' W 123°22'0 0.0
2017-Apr-21 10:59N 48°25' W 123°22'0 0.0
2017-Apr-21 10:29N 48°25' W 123°22'0 0.0
2017-Apr-21 09:59N 48°25' W 123°22'0 0.0
2017-Apr-21 09:29N 48°25' W 123°22'0 0.0
2017-Apr-21 08:59N 48°25' W 123°22'0 0.0
2017-Apr-21 08:29N 48°25' W 123°22'0 0.0
2017-Apr-21 07:50N 48°25' W 123°22'0 0.0
2017-Apr-21 07:29N 48°25' W 123°22'0 0.0
2017-Apr-21 06:59N 48°25' W 123°22'0 0.0
2017-Apr-21 06:29N 48°25' W 123°22'0 0.0
2017-Apr-21 05:59N 48°25' W 123°22'0 0.0
2017-Apr-21 05:29N 48°25' W 123°22'0 0.0
2017-Apr-21 04:59N 48°25' W 123°22'0 0.0
2017-Apr-21 04:29N 48°25' W 123°22'0 0.0
2017-Apr-21 03:59N 48°25' W 123°22'0 0.0
2017-Apr-21 03:29N 48°25' W 123°22'0 0.0
2017-Apr-21 02:59N 48°25' W 123°22'0 0.0
2017-Apr-21 02:29N 48°25' W 123°22'  
Track history (hours):
 
Tides and Currents Weather Stations Pressure Air Temp Water Temp Dewpoint Dewpoint Depression Visibility Wind Speed Wind Dir Waves Ship Positions

Coastal Messenger

Last reported at 2017-May-01 01:59 UTC. Time now 2017-May-01 02:24 UTC.
Position N 48°57' W 125°33'.

Length 16 m.

Type: Pleasure craft. MMSI: 316016342.

Date/timePositionNaut miles runAvg speedWind from/ knotsBaromVisibWave heightAir tempDewpointWater temp
2017-May-01 01:59N 48°57' W 125°33'0 0.0
2017-May-01 01:29N 48°57' W 125°33'0 0.0
2017-May-01 00:56N 48°57' W 125°33'0 0.0
2017-May-01 00:29N 48°57' W 125°33'0 0.0
2017-Apr-30 23:59N 48°57' W 125°33'0 0.0
2017-Apr-30 23:29N 48°57' W 125°33'0 0.0
2017-Apr-30 22:59N 48°57' W 125°33'0 0.0
2017-Apr-30 22:29N 48°57' W 125°33'0 0.0
2017-Apr-30 21:59N 48°57' W 125°33'0 0.0
2017-Apr-30 21:29N 48°57' W 125°33'0 0.0
2017-Apr-30 20:59N 48°57' W 125°33'0 0.0
2017-Apr-30 20:29N 48°57' W 125°33'0 0.0
2017-Apr-30 19:59N 48°57' W 125°33'0 0.0
2017-Apr-30 19:29N 48°57' W 125°33'0 0.0
2017-Apr-30 18:56N 48°57' W 125°33'0 0.0
2017-Apr-30 18:26N 48°57' W 125°33'0 0.0
2017-Apr-30 17:59N 48°57' W 125°33'0 0.0
2017-Apr-30 17:29N 48°57' W 125°33'0 0.0
2017-Apr-30 16:59N 48°57' W 125°33'0 0.0
2017-Apr-30 16:29N 48°57' W 125°33'0 0.0
2017-Apr-30 15:59N 48°57' W 125°33'0 0.0
2017-Apr-30 15:23N 48°57' W 125°33'0 0.0
2017-Apr-30 14:59N 48°57' W 125°33'0 0.0
2017-Apr-30 14:29N 48°57' W 125°33'0 0.0
2017-Apr-30 13:23N 48°57' W 125°33'0 0.0
2017-Apr-30 12:59N 48°57' W 125°33'0 0.0
2017-Apr-30 12:29N 48°57' W 125°33'0 0.0
2017-Apr-30 11:59N 48°57' W 125°33'0 0.0
2017-Apr-30 11:29N 48°57' W 125°33'0 0.0
2017-Apr-30 10:59N 48°57' W 125°33'0 0.0
2017-Apr-30 10:29N 48°57' W 125°33'0 0.0
2017-Apr-30 09:59N 48°57' W 125°33'0 0.0
2017-Apr-30 09:29N 48°57' W 125°33'0 0.0
2017-Apr-30 08:59N 48°57' W 125°33'0 0.0
2017-Apr-30 08:29N 48°57' W 125°33'0 0.0
2017-Apr-30 07:59N 48°57' W 125°33'0 0.0
2017-Apr-30 07:29N 48°57' W 125°33'0 0.0
2017-Apr-30 06:59N 48°57' W 125°33'0 0.0
2017-Apr-30 06:29N 48°57' W 125°33'0 0.0
2017-Apr-30 05:59N 48°57' W 125°33'0 0.0
2017-Apr-30 05:29N 48°57' W 125°33'0 0.0
2017-Apr-30 04:59N 48°57' W 125°33'0 0.0
2017-Apr-30 04:29N 48°57' W 125°33'0 0.0
2017-Apr-30 03:59N 48°57' W 125°33'0 0.0
2017-Apr-30 03:29N 48°57' W 125°33'0 0.0
2017-Apr-30 02:59N 48°57' W 125°33'0 0.0
2017-Apr-30 02:29N 48°57' W 125°33'0 0.0
2017-Apr-30 01:59N 48°57' W 125°33'0 0.0
2017-Apr-30 01:29N 48°57' W 125°33'0 0.0
2017-Apr-30 00:56N 48°57' W 125°33'0 0.0
2017-Apr-30 00:29N 48°57' W 125°33'0 0.0
2017-Apr-29 23:59N 48°57' W 125°33'0 0.0
2017-Apr-29 23:29N 48°57' W 125°33'1 1.6
2017-Apr-29 22:58N 48°56' W 125°32'0 0.0
2017-Apr-29 22:28N 48°56' W 125°32'0 0.0
2017-Apr-29 21:58N 48°56' W 125°32'0 0.0
2017-Apr-29 21:28N 48°56' W 125°32'0 0.0
2017-Apr-29 20:58N 48°56' W 125°32'0 0.0
2017-Apr-29 20:28N 48°56' W 125°32'2 4.7
2017-Apr-29 20:00N 48°55' W 125°30'4 8.3
2017-Apr-29 19:30N 48°54' W 125°24'1 2.2
2017-Apr-29 19:00N 48°54' W 125°22'29 1.4
2017-Apr-28 22:12N 49°13' W 124°49'1 0.1
2017-Apr-28 01:16N 49°14' W 124°49'  
2017-Apr-24 18:11N 48°35' W 124°47'2 7.0
2017-Apr-24 17:53N 48°34' W 124°45'3 7.4
2017-Apr-24 17:30N 48°33' W 124°41'11 8.6
2017-Apr-24 16:14N 48°28' W 124°26'39 0.8
2017-Apr-22 15:01N 48°20' W 123°28'4 9.0
2017-Apr-22 14:37N 48°23' W 123°25'1 8.3
2017-Apr-22 14:30N 48°24' W 123°25'2 2.0
2017-Apr-22 13:29N 48°25' W 123°22'0 0.0
2017-Apr-22 12:59N 48°25' W 123°22'0 0.0
2017-Apr-22 12:29N 48°25' W 123°22'0 0.0
2017-Apr-22 11:59N 48°25' W 123°22'0 0.0
2017-Apr-22 11:29N 48°25' W 123°22'0 0.0
2017-Apr-22 10:59N 48°25' W 123°22'0 0.0
2017-Apr-22 10:29N 48°25' W 123°22'0 0.0
2017-Apr-22 09:59N 48°25' W 123°22'0 0.0
2017-Apr-22 09:29N 48°25' W 123°22'0 0.0
2017-Apr-22 08:59N 48°25' W 123°22'0 0.0
2017-Apr-22 08:29N 48°25' W 123°22'0 0.0
2017-Apr-22 07:59N 48°25' W 123°22'0 0.0
2017-Apr-22 07:29N 48°25' W 123°22'0 0.0
2017-Apr-22 06:59N 48°25' W 123°22'0 0.0
2017-Apr-22 06:29N 48°25' W 123°22'0 0.0
2017-Apr-22 05:59N 48°25' W 123°22'0 0.0
2017-Apr-22 05:29N 48°25' W 123°22'0 0.0
2017-Apr-22 04:59N 48°25' W 123°22'0 0.0
2017-Apr-22 04:29N 48°25' W 123°22'0 0.0
2017-Apr-22 03:59N 48°25' W 123°22'0 0.0
2017-Apr-22 03:26N 48°25' W 123°22'0 0.0
2017-Apr-22 02:59N 48°25' W 123°22'0 0.0
2017-Apr-22 02:29N 48°25' W 123°22'0 0.0
2017-Apr-22 01:59N 48°25' W 123°22'0 0.0
2017-Apr-22 01:29N 48°25' W 123°22'0 0.0
2017-Apr-22 00:59N 48°25' W 123°22'0 0.0
2017-Apr-22 00:29N 48°25' W 123°22'0 0.0
2017-Apr-21 23:59N 48°25' W 123°22'0 0.0
2017-Apr-21 23:29N 48°25' W 123°22'0 0.0
2017-Apr-21 22:59N 48°25' W 123°22'0 0.0
2017-Apr-21 22:29N 48°25' W 123°22'0 0.0
2017-Apr-21 21:59N 48°25' W 123°22'0 0.0
2017-Apr-21 21:29N 48°25' W 123°22'0 0.0
2017-Apr-21 20:59N 48°25' W 123°22'0 0.0
2017-Apr-21 20:26N 48°25' W 123°22'0 0.0
2017-Apr-21 19:59N 48°25' W 123°22'0 0.0
2017-Apr-21 19:29N 48°25' W 123°22'0 0.0
2017-Apr-21 18:59N 48°25' W 123°22'0 0.0
2017-Apr-21 18:29N 48°25' W 123°22'0 0.0
2017-Apr-21 17:59N 48°25' W 123°22'0 0.0
2017-Apr-21 17:29N 48°25' W 123°22'0 0.0
2017-Apr-21 16:59N 48°25' W 123°22'0 0.1
2017-Apr-21 16:29N 48°25' W 123°22'0 0.0
2017-Apr-21 15:56N 48°25' W 123°22'0 0.0
2017-Apr-21 15:29N 48°25' W 123°22'0 0.0
2017-Apr-21 14:59N 48°25' W 123°22'0 0.0
2017-Apr-21 14:29N 48°25' W 123°22'0 0.0
2017-Apr-21 13:29N 48°25' W 123°22'0 0.0
2017-Apr-21 12:59N 48°25' W 123°22'0 0.0
2017-Apr-21 12:29N 48°25' W 123°22'0 0.0
2017-Apr-21 11:59N 48°25' W 123°22'0 0.0
2017-Apr-21 11:29N 48°25' W 123°22'0 0.0
2017-Apr-21 10:59N 48°25' W 123°22'0 0.0
2017-Apr-21 10:29N 48°25' W 123°22'0 0.0
2017-Apr-21 09:59N 48°25' W 123°22'0 0.0
2017-Apr-21 09:29N 48°25' W 123°22'0 0.0
2017-Apr-21 08:59N 48°25' W 123°22'0 0.0
2017-Apr-21 08:29N 48°25' W 123°22'0 0.0
2017-Apr-21 07:50N 48°25' W 123°22'0 0.0
2017-Apr-21 07:29N 48°25' W 123°22'0 0.0
2017-Apr-21 06:59N 48°25' W 123°22'0 0.0
2017-Apr-21 06:29N 48°25' W 123°22'0 0.0
2017-Apr-21 05:59N 48°25' W 123°22'0 0.0
2017-Apr-21 05:29N 48°25' W 123°22'0 0.0
2017-Apr-21 04:59N 48°25' W 123°22'0 0.0
2017-Apr-21 04:29N 48°25' W 123°22'0 0.0
2017-Apr-21 03:59N 48°25' W 123°22'0 0.0
2017-Apr-21 03:29N 48°25' W 123°22'0 0.0
2017-Apr-21 02:59N 48°25' W 123°22'0 0.0
2017-Apr-21 02:29N 48°25' W 123°22'  

Dump ship's entire track history